Elkhorn, West Virginia
Current Conditions -  °F | °C
As of 7:52 PM on Monday 20 Oct 2014 (Local Time) from KBLF Reporting Station
Broken Clouds Broken Clouds  
Wind Chill: 54°   Ceiling: 11000
Heat Index: 54°   Visibility: 10mi
Dew Point: 41°   Wind: 6mph
Humidity: 62%   Direction: 230°SW
Pressure: 29.99"   Gusts: NA
Location:  37.39°N, 81.41°W
Report Text: KBLF 202352Z AUTO 23005KT 10SM SCT090 BKN110 12/05 A2999 RMK AO2 SLP146 P0001 60003 T01220050 10172 20117 55004
Loading
Personal Weather Stations






























Interactive Weather Map New forecast layout! Learn more

10-Day Weather Forecast

Advertisements
Track Severe Weather on mobile